Potter Valley, California
Current Conditions -  °F | °C
As of 10:56 PM on Saturday 25 Oct 2014 (Local Time) from KUKI Reporting Station
Light Rain Light Rain  
Wind Chill: 53°   Ceiling: 2300
Heat Index: 53°   Visibility: 6mi
Dew Point: 51°   Wind: 0mph
Humidity: 93%   Direction: NA
Pressure: 30.15"   Gusts: NA
Location:  39.32°N, 123.12°W
Report Text: KUKI 260556Z AUTO 00000KT 6SM -RA BR BKN023 BKN031 OVC041 12/11 A3015 RMK AO2 RAB34 SLP205 P0002 60004 T01170106 10161 20111 51019
Loading
Personal Weather Stations






























Interactive Weather Map
Tropical Storm Tracking
New forecast layout! Learn more

10-Day Weather Forecast

Advertisements
Track Severe Weather on mobile